createdAt,value
2023-03-10T00:00:28.212Z,6.83
2023-03-10T00:01:33.875Z,6.89
2023-03-10T00:02:36.724Z,6.99
2023-03-10T00:03:40.060Z,6.93
2023-03-10T00:04:42.732Z,6.91
2023-03-10T00:05:46.162Z,7.00
2023-03-10T00:06:49.036Z,6.95
2023-03-10T00:07:51.963Z,6.82
2023-03-10T00:08:55.868Z,6.79
2023-03-10T00:09:58.634Z,6.72
2023-03-10T00:11:01.582Z,6.78
2023-03-10T00:12:04.632Z,6.81
2023-03-10T00:13:07.442Z,6.88
2023-03-10T00:14:10.245Z,6.87
2023-03-10T00:15:14.307Z,6.88
2023-03-10T00:16:23.289Z,6.89
2023-03-10T00:17:26.065Z,6.91
2023-03-10T00:18:29.319Z,6.89
2023-03-10T00:19:32.418Z,6.88
2023-03-10T00:20:35.279Z,6.82
2023-03-10T00:21:37.957Z,6.79
2023-03-10T00:22:42.219Z,6.74
2023-03-10T00:23:45.592Z,6.76
2023-03-10T00:24:48.315Z,6.73
2023-03-10T00:25:55.860Z,6.68
2023-03-10T00:26:58.819Z,6.67
2023-03-10T00:28:01.628Z,6.71
2023-03-10T00:29:05.178Z,6.73
2023-03-10T00:30:08.911Z,6.86
2023-03-10T00:31:17.858Z,6.89
2023-03-10T00:32:20.720Z,6.90
2023-03-10T00:33:23.626Z,6.90
2023-03-10T00:34:26.500Z,6.92
2023-03-10T00:35:29.225Z,6.91
2023-03-10T00:36:33.097Z,6.90
2023-03-10T00:37:39.200Z,6.89
2023-03-10T00:38:43.166Z,6.82
2023-03-10T00:39:51.461Z,6.82
2023-03-10T00:41:07.656Z,6.93
2023-03-10T00:42:10.525Z,6.98
2023-03-10T00:43:13.290Z,6.92
2023-03-10T00:44:16.379Z,6.89
2023-03-10T00:45:19.138Z,6.94
2023-03-10T00:46:24.572Z,6.92
2023-03-10T00:47:27.473Z,6.88
2023-03-10T00:48:30.988Z,6.89
2023-03-10T00:49:34.138Z,6.92
2023-03-10T00:50:36.760Z,6.96
2023-03-10T00:51:39.912Z,6.93
2023-03-10T00:52:42.614Z,6.91
2023-03-10T00:53:45.382Z,6.89
2023-03-10T00:54:50.077Z,6.93
2023-03-10T00:56:00.929Z,6.99
2023-03-10T00:57:04.578Z,6.99
2023-03-10T00:58:07.971Z,6.95
2023-03-10T00:59:12.552Z,6.94
2023-03-10T01:00:18.213Z,6.95
2023-03-10T01:01:26.003Z,7.01
2023-03-10T01:02:28.947Z,7.00
2023-03-10T01:03:33.394Z,7.06
2023-03-10T01:04:36.361Z,7.16
2023-03-10T01:05:39.277Z,7.40
2023-03-10T01:06:44.685Z,7.47
2023-03-10T01:07:47.579Z,7.62
2023-03-10T01:08:51.331Z,7.76
2023-03-10T01:09:54.019Z,7.71
2023-03-10T01:10:57.004Z,7.63
2023-03-10T01:11:59.634Z,7.64
2023-03-10T01:13:02.483Z,7.71
2023-03-10T01:14:08.804Z,7.68
2023-03-10T01:15:12.932Z,7.80
2023-03-10T01:16:16.133Z,7.69
2023-03-10T01:17:19.007Z,7.70
2023-03-10T01:18:24.636Z,7.66
2023-03-10T01:19:27.511Z,7.60
2023-03-10T01:20:31.976Z,7.55
2023-03-10T01:21:37.397Z,7.54
2023-03-10T01:22:40.622Z,7.50
2023-03-10T01:23:43.377Z,7.48
2023-03-10T01:24:46.088Z,7.48
2023-03-10T01:25:49.466Z,7.48
2023-03-10T01:26:52.206Z,7.59
2023-03-10T01:27:55.089Z,7.58
2023-03-10T01:28:58.321Z,7.56
2023-03-10T01:30:01.024Z,7.52
2023-03-10T01:31:05.725Z,7.47
2023-03-10T01:32:08.436Z,7.46
2023-03-10T01:33:11.995Z,7.44
2023-03-10T01:34:14.874Z,7.44
2023-03-10T01:35:17.763Z,7.44
2023-03-10T01:36:26.327Z,7.43
2023-03-10T01:37:29.236Z,7.38
2023-03-10T01:38:32.189Z,7.25
2023-03-10T01:39:34.996Z,7.23
2023-03-10T01:40:38.561Z,7.20
2023-03-10T01:41:42.034Z,7.16
2023-03-10T01:42:46.206Z,7.07
2023-03-10T01:43:51.667Z,6.98
2023-03-10T01:45:23.753Z,6.92
2023-03-10T01:46:39.314Z,6.80
2023-03-10T01:47:43.346Z,6.80
2023-03-10T01:48:46.408Z,6.69
2023-03-10T01:49:49.201Z,6.70
2023-03-10T01:50:54.967Z,6.79
2023-03-10T01:52:12.701Z,6.82
2023-03-10T01:53:18.187Z,6.84
2023-03-10T01:54:26.354Z,6.87
2023-03-10T01:55:36.576Z,6.89
2023-03-10T01:56:40.755Z,6.92
2023-03-10T01:57:51.478Z,6.94
2023-03-10T01:58:54.969Z,7.15
2023-03-10T01:59:59.434Z,7.17
2023-03-10T02:01:02.351Z,7.22
2023-03-10T02:02:05.514Z,7.34
2023-03-10T02:03:17.633Z,7.48
2023-03-10T02:04:27.923Z,7.64
2023-03-10T02:05:32.589Z,7.69
2023-03-10T02:06:37.735Z,7.71
2023-03-10T02:07:43.454Z,7.83
2023-03-10T02:08:52.217Z,7.84
2023-03-10T02:09:56.367Z,7.75
2023-03-10T02:11:01.216Z,7.69
2023-03-10T02:12:05.877Z,7.81
2023-03-10T02:13:08.740Z,7.80
2023-03-10T02:14:11.727Z,7.74
2023-03-10T02:15:14.630Z,7.88
2023-03-10T02:16:18.882Z,7.86
2023-03-10T02:17:24.600Z,7.89
2023-03-10T02:18:29.186Z,7.93
2023-03-10T02:19:58.600Z,7.88
2023-03-10T02:21:36.194Z,7.92
2023-03-10T02:22:40.309Z,7.95
2023-03-10T02:24:16.752Z,7.88
2023-03-10T02:25:38.182Z,8.08
2023-03-10T02:27:04.012Z,8.05
2023-03-10T02:28:07.225Z,7.98
2023-03-10T02:29:18.403Z,8.13
2023-03-10T02:30:32.907Z,8.07
2023-03-10T02:31:37.140Z,8.06
2023-03-10T02:32:45.754Z,8.08
2023-03-10T02:33:50.590Z,8.01
2023-03-10T02:34:53.490Z,7.95
2023-03-10T02:36:12.647Z,8.05
2023-03-10T02:37:24.122Z,7.98
2023-03-10T02:38:26.855Z,8.17
2023-03-10T02:39:29.602Z,8.13
2023-03-10T02:40:40.756Z,8.04
2023-03-10T02:41:45.572Z,8.09
2023-03-10T02:42:48.910Z,8.02
2023-03-10T02:43:53.389Z,8.02
2023-03-10T02:44:56.651Z,7.95
2023-03-10T02:46:03.323Z,8.02
2023-03-10T02:47:06.256Z,8.34
2023-03-10T02:48:12.313Z,8.44
2023-03-10T02:49:18.017Z,8.31
2023-03-10T02:50:23.038Z,8.26
2023-03-10T02:51:31.152Z,8.27
2023-03-10T02:52:44.977Z,8.25
2023-03-10T02:53:47.950Z,8.46
2023-03-10T02:54:50.637Z,8.59
2023-03-10T02:55:54.098Z,8.66
2023-03-10T02:56:56.953Z,8.66
2023-03-10T02:58:02.677Z,8.87
2023-03-10T02:59:07.191Z,8.77
2023-03-10T03:00:11.520Z,8.90
2023-03-10T03:01:15.106Z,9.13
2023-03-10T03:02:17.845Z,9.15
2023-03-10T03:03:22.467Z,9.15
2023-03-10T03:04:25.112Z,9.25
2023-03-10T03:05:27.840Z,9.44
2023-03-10T03:06:31.355Z,9.46
2023-03-10T03:07:34.322Z,9.52
2023-03-10T03:08:37.417Z,9.59
2023-03-10T03:09:40.176Z,9.52
2023-03-10T03:10:43.245Z,9.59
2023-03-10T03:11:46.230Z,9.59
2023-03-10T03:12:50.805Z,9.64
2023-03-10T03:13:53.483Z,9.56
2023-03-10T03:14:56.277Z,9.64
2023-03-10T03:15:58.944Z,9.60
2023-03-10T03:17:01.659Z,9.52
2023-03-10T03:18:05.211Z,9.57
2023-03-10T03:19:08.069Z,9.55
2023-03-10T03:20:14.858Z,9.47
2023-03-10T03:21:17.900Z,9.46
2023-03-10T03:22:20.734Z,9.48
2023-03-10T03:23:23.544Z,9.43
2023-03-10T03:24:26.710Z,9.39
2023-03-10T03:25:30.659Z,9.41
2023-03-10T03:26:33.433Z,9.41
2023-03-10T03:27:37.207Z,9.50
2023-03-10T03:28:40.085Z,9.41
2023-03-10T03:29:42.894Z,9.41
2023-03-10T03:30:45.884Z,9.43
2023-03-10T03:31:48.699Z,9.38
2023-03-10T03:32:52.838Z,9.37
2023-03-10T03:33:55.518Z,9.44
2023-03-10T03:35:00.229Z,9.36
2023-03-10T03:36:02.974Z,9.26
2023-03-10T03:37:05.823Z,9.23
2023-03-10T03:38:08.807Z,9.33
2023-03-10T03:39:11.764Z,9.27
2023-03-10T03:40:15.215Z,9.20
2023-03-10T03:41:18.193Z,9.22
2023-03-10T03:42:21.033Z,9.14
2023-03-10T03:43:23.612Z,9.07
2023-03-10T03:44:26.345Z,9.01
2023-03-10T03:45:31.793Z,8.92
2023-03-10T03:46:34.808Z,8.91
2023-03-10T03:47:37.687Z,8.91
2023-03-10T03:48:40.679Z,8.90
2023-03-10T03:49:43.618Z,8.87
2023-03-10T03:50:46.286Z,8.83
2023-03-10T03:51:48.951Z,8.85
2023-03-10T03:52:52.071Z,8.78
2023-03-10T03:53:54.766Z,8.72
2023-03-10T03:54:57.477Z,8.72
2023-03-10T03:56:00.551Z,8.70
2023-03-10T03:57:03.996Z,8.76
2023-03-10T03:58:07.099Z,8.81
2023-03-10T03:59:09.975Z,8.79
2023-03-10T04:00:21.095Z,8.81
2023-03-10T04:01:23.580Z,8.94
2023-03-10T04:02:26.300Z,8.80
2023-03-10T04:03:29.295Z,8.66
2023-03-10T04:04:32.184Z,8.61
2023-03-10T04:05:35.180Z,8.43
2023-03-10T04:06:38.099Z,8.34
2023-03-10T04:07:42.348Z,8.22
2023-03-10T04:08:45.396Z,8.11
2023-03-10T04:09:48.297Z,8.02
2023-03-10T04:10:52.986Z,7.95
2023-03-10T04:11:55.682Z,7.90
2023-03-10T04:12:58.453Z,7.83
2023-03-10T04:14:01.164Z,7.79
2023-03-10T04:15:05.269Z,7.72
2023-03-10T04:16:08.716Z,7.62
2023-03-10T04:17:12.360Z,7.55
2023-03-10T04:18:15.329Z,7.57
2023-03-10T04:19:18.228Z,7.41
2023-03-10T04:20:20.983Z,7.42
2023-03-10T04:21:23.872Z,7.39
2023-03-10T04:22:26.799Z,7.32
2023-03-10T04:23:29.629Z,7.14
2023-03-10T04:24:32.393Z,7.03
2023-03-10T04:25:36.487Z,6.98
2023-03-10T04:26:39.303Z,6.90
2023-03-10T04:27:42.177Z,6.91
2023-03-10T04:28:45.042Z,6.77
2023-03-10T04:29:48.038Z,6.75
2023-03-10T04:30:51.134Z,6.69
2023-03-10T04:32:04.801Z,6.56
2023-03-10T04:33:10.513Z,6.69
2023-03-10T04:34:13.369Z,6.57
2023-03-10T04:35:16.115Z,6.55
2023-03-10T04:36:20.278Z,6.57
2023-03-10T04:37:23.186Z,6.30
2023-03-10T04:38:26.101Z,6.22
2023-03-10T04:39:29.063Z,6.20
2023-03-10T04:40:31.779Z,6.11
2023-03-10T04:41:34.657Z,6.21
2023-03-10T04:42:37.390Z,6.16
2023-03-10T04:43:42.389Z,6.15
2023-03-10T04:44:46.008Z,6.10
2023-03-10T04:45:49.291Z,6.08
2023-03-10T04:46:52.180Z,6.08
2023-03-10T04:47:54.948Z,6.13
2023-03-10T04:48:58.074Z,6.17
2023-03-10T04:50:01.081Z,6.24
2023-03-10T04:51:08.159Z,6.27
2023-03-10T04:52:10.879Z,6.36
2023-03-10T04:53:13.788Z,6.38
2023-03-10T04:54:16.664Z,6.34
2023-03-10T04:55:19.565Z,6.53
2023-03-10T04:56:22.429Z,6.71
2023-03-10T04:57:25.455Z,6.79
2023-03-10T04:58:28.497Z,7.04
2023-03-10T04:59:31.316Z,7.04
2023-03-10T05:00:34.348Z,7.14
2023-03-10T05:01:37.343Z,7.44
2023-03-10T05:02:40.829Z,7.57
2023-03-10T05:03:44.253Z,7.70
2023-03-10T05:04:47.263Z,7.77
2023-03-10T05:05:50.641Z,7.66
2023-03-10T05:06:53.776Z,7.53
2023-03-10T05:07:56.490Z,7.58
2023-03-10T05:09:01.097Z,7.55
2023-03-10T05:10:04.784Z,7.57
2023-03-10T05:11:08.273Z,7.53
2023-03-10T05:12:11.493Z,7.54
2023-03-10T05:13:14.517Z,7.62
2023-03-10T05:14:17.606Z,7.51
2023-03-10T05:15:20.836Z,7.51
2023-03-10T05:16:24.345Z,7.62
2023-03-10T05:17:28.726Z,7.60
2023-03-10T05:18:31.406Z,7.71
2023-03-10T05:19:35.118Z,7.69
2023-03-10T05:20:38.679Z,7.71
2023-03-10T05:21:41.503Z,7.71
2023-03-10T05:22:44.555Z,7.69
2023-03-10T05:23:47.557Z,7.62
2023-03-10T05:24:50.569Z,7.62
2023-03-10T05:25:53.341Z,7.71
2023-03-10T05:26:56.653Z,7.71
2023-03-10T05:27:59.340Z,7.76
2023-03-10T05:29:02.309Z,7.72
2023-03-10T05:30:06.755Z,7.74
2023-03-10T05:31:16.104Z,7.68
2023-03-10T05:32:19.138Z,7.65
2023-03-10T05:33:22.019Z,7.74
2023-03-10T05:34:26.957Z,7.61
2023-03-10T05:35:29.725Z,7.52
2023-03-10T05:36:32.369Z,7.52
2023-03-10T05:37:39.926Z,7.49
2023-03-10T05:38:43.407Z,7.51
2023-03-10T05:39:46.542Z,7.60
2023-03-10T05:40:49.423Z,7.66
2023-03-10T05:41:52.315Z,7.59
2023-03-10T05:42:54.998Z,7.69
2023-03-10T05:43:57.803Z,7.71
2023-03-10T05:45:00.627Z,7.75
2023-03-10T05:46:03.400Z,7.71
2023-03-10T05:47:06.908Z,7.78
2023-03-10T05:48:09.618Z,7.81
2023-03-10T05:49:12.660Z,7.83
2023-03-10T05:50:15.946Z,7.78
2023-03-10T05:51:18.963Z,7.74
2023-03-10T05:52:21.560Z,7.71
2023-03-10T05:53:25.651Z,7.66
2023-03-10T05:54:28.350Z,7.69
2023-03-10T05:55:31.199Z,7.86
2023-03-10T05:56:34.062Z,7.86
2023-03-10T05:57:37.102Z,7.74
2023-03-10T05:58:43.559Z,7.69
2023-03-10T05:59:46.688Z,7.81
2023-03-10T06:00:49.848Z,8.03
2023-03-10T06:01:52.602Z,8.02
2023-03-10T06:02:55.335Z,7.97
2023-03-10T06:03:58.170Z,7.95
2023-03-10T06:05:01.238Z,7.92
2023-03-10T06:06:07.061Z,7.86
2023-03-10T06:07:09.785Z,7.87
2023-03-10T06:08:12.942Z,7.91
2023-03-10T06:09:16.103Z,7.96
2023-03-10T06:10:19.118Z,7.96
2023-03-10T06:11:21.836Z,8.00
2023-03-10T06:12:24.648Z,8.02
2023-03-10T06:13:27.561Z,8.08
2023-03-10T06:14:30.370Z,8.06
2023-03-10T06:15:33.219Z,8.02
2023-03-10T06:16:36.588Z,8.06
2023-03-10T06:17:39.433Z,8.21
2023-03-10T06:18:42.519Z,8.24
2023-03-10T06:19:45.216Z,8.19
2023-03-10T06:20:48.813Z,8.30
2023-03-10T06:21:51.600Z,8.36
2023-03-10T06:22:54.527Z,8.31
2023-03-10T06:23:58.147Z,8.29
2023-03-10T06:25:01.155Z,8.36
2023-03-10T06:26:11.990Z,8.53
2023-03-10T06:27:14.725Z,8.67
2023-03-10T06:28:17.797Z,8.55
2023-03-10T06:29:20.573Z,8.58
2023-03-10T06:30:23.495Z,8.56
2023-03-10T06:31:29.407Z,8.66
2023-03-10T06:32:32.274Z,8.73
2023-03-10T06:33:35.980Z,8.74
2023-03-10T06:34:38.661Z,8.80
2023-03-10T06:35:41.494Z,8.84
2023-03-10T06:36:45.725Z,8.91
2023-03-10T06:37:48.480Z,8.93
2023-03-10T06:38:51.451Z,8.96
2023-03-10T06:39:54.537Z,9.04
2023-03-10T06:40:58.024Z,9.19
2023-03-10T06:42:01.618Z,9.26
2023-03-10T06:43:04.277Z,9.32
2023-03-10T06:44:07.262Z,9.50
2023-03-10T06:45:14.340Z,9.60
2023-03-10T06:46:17.668Z,9.67
2023-03-10T06:47:20.447Z,9.83
2023-03-10T06:48:23.136Z,9.96
2023-03-10T06:49:30.589Z,10.13
2023-03-10T06:50:33.321Z,10.17
2023-03-10T06:51:36.057Z,10.36
2023-03-10T06:52:42.516Z,10.44
2023-03-10T06:53:46.608Z,10.48
2023-03-10T06:54:49.356Z,10.55
2023-03-10T06:56:04.693Z,10.51
2023-03-10T06:57:07.693Z,10.47
2023-03-10T06:58:10.957Z,10.54
2023-03-10T06:59:13.655Z,10.67
2023-03-10T07:00:17.102Z,10.90
2023-03-10T07:01:28.733Z,10.86
2023-03-10T07:02:32.040Z,10.99
2023-03-10T07:03:36.466Z,11.23
2023-03-10T07:04:40.510Z,11.03
2023-03-10T07:05:43.548Z,11.23
2023-03-10T07:06:46.889Z,11.16
2023-03-10T07:07:53.174Z,11.14
2023-03-10T07:08:57.063Z,10.94
2023-03-10T07:09:59.890Z,11.02
2023-03-10T07:11:03.056Z,11.23
2023-03-10T07:12:06.391Z,11.23
2023-03-10T07:13:11.135Z,11.21
2023-03-10T07:14:14.582Z,11.19
2023-03-10T07:15:18.514Z,11.33
2023-03-10T07:16:22.476Z,11.41
2023-03-10T07:17:26.069Z,11.52
2023-03-10T07:18:30.086Z,11.25
2023-03-10T07:19:33.130Z,11.52
2023-03-10T07:20:36.579Z,11.68
2023-03-10T07:21:39.446Z,11.66
2023-03-10T07:22:42.412Z,11.82
2023-03-10T07:23:45.958Z,12.00
2023-03-10T07:24:49.565Z,12.22
2023-03-10T07:25:58.056Z,12.39
2023-03-10T07:27:01.592Z,12.54
2023-03-10T07:28:06.199Z,12.70
2023-03-10T07:29:09.774Z,12.60
2023-03-10T07:30:13.478Z,12.74
2023-03-10T07:31:17.396Z,12.38
2023-03-10T07:33:24.015Z,12.85
2023-03-10T07:34:27.246Z,12.64
2023-03-10T07:35:30.096Z,12.70
2023-03-10T07:36:33.563Z,12.56
2023-03-10T07:37:40.876Z,12.74
2023-03-10T07:38:44.162Z,12.80
2023-03-10T07:39:47.622Z,12.85
2023-03-10T07:40:50.689Z,12.82
2023-03-10T07:41:53.375Z,12.48
2023-03-10T07:42:56.479Z,12.40
2023-03-10T07:43:59.452Z,12.17
2023-03-10T07:45:02.554Z,12.08
2023-03-10T07:46:08.344Z,12.22
2023-03-10T07:47:11.213Z,11.97
2023-03-10T07:48:14.095Z,12.00
2023-03-10T07:49:16.957Z,11.90
2023-03-10T07:50:20.859Z,11.65
2023-03-10T07:51:23.922Z,11.74
2023-03-10T07:52:29.361Z,11.79
2023-03-10T07:53:33.424Z,11.93
2023-03-10T07:54:36.306Z,11.83
2023-03-10T07:55:39.407Z,11.76
2023-03-10T07:56:42.404Z,11.68
2023-03-10T07:57:45.546Z,11.90
2023-03-10T07:58:48.695Z,11.97
2023-03-10T07:59:51.712Z,12.01
2023-03-10T08:00:59.192Z,12.26
2023-03-10T08:02:02.110Z,12.53
2023-03-10T08:03:07.275Z,12.62
2023-03-10T08:04:12.866Z,12.41
2023-03-10T08:05:15.824Z,12.27
2023-03-10T08:06:27.165Z,12.48
2023-03-10T08:07:30.787Z,12.81
2023-03-10T08:08:33.797Z,12.89
2023-03-10T08:09:36.986Z,13.06
2023-03-10T08:10:40.255Z,12.71
2023-03-10T08:11:43.200Z,12.66
2023-03-10T08:12:46.085Z,12.67
2023-03-10T08:13:49.321Z,12.67
2023-03-10T08:14:52.754Z,12.69
2023-03-10T08:15:56.056Z,13.06
2023-03-10T08:16:59.427Z,13.44
2023-03-10T08:18:05.429Z,13.53
2023-03-10T08:19:08.296Z,13.69
2023-03-10T08:20:11.899Z,13.91
2023-03-10T08:21:15.077Z,13.97
2023-03-10T08:22:17.926Z,13.67
2023-03-10T08:23:20.844Z,13.78
2023-03-10T08:24:24.665Z,14.01
2023-03-10T08:25:28.181Z,14.21
2023-03-10T08:26:31.317Z,14.11
2023-03-10T08:27:34.319Z,14.09
2023-03-10T08:28:39.040Z,14.13
2023-03-10T08:29:42.110Z,14.16
2023-03-10T08:31:02.587Z,14.21
2023-03-10T08:32:07.077Z,13.97
2023-03-10T08:33:10.399Z,13.83
2023-03-10T08:34:13.927Z,14.01
2023-03-10T08:35:17.136Z,13.98
2023-03-10T08:36:23.032Z,13.67
2023-03-10T08:37:25.910Z,13.43
2023-03-10T08:38:29.089Z,13.43
2023-03-10T08:39:32.509Z,13.36
2023-03-10T08:40:36.116Z,13.34
2023-03-10T08:41:50.312Z,13.37
2023-03-10T08:42:53.719Z,13.50
2023-03-10T08:43:58.073Z,13.43
2023-03-10T08:45:01.104Z,13.54
2023-03-10T08:46:04.534Z,13.64
2023-03-10T08:47:08.892Z,13.76
2023-03-10T08:48:11.709Z,13.55
2023-03-10T08:49:16.273Z,13.67
2023-03-10T08:50:19.754Z,13.78
2023-03-10T08:51:23.595Z,13.73
2023-03-10T08:52:26.751Z,13.58
2023-03-10T08:53:29.827Z,13.44
2023-03-10T08:54:32.880Z,13.64
2023-03-10T08:55:35.640Z,13.60
2023-03-10T08:56:38.588Z,13.52
2023-03-10T08:57:41.667Z,13.47
2023-03-10T08:58:45.824Z,13.41
2023-03-10T08:59:48.946Z,13.83
2023-03-10T09:00:52.399Z,13.99
2023-03-10T09:01:55.805Z,14.13
2023-03-10T09:02:59.164Z,14.70
2023-03-10T09:04:04.587Z,14.77
2023-03-10T09:05:07.825Z,14.72
2023-03-10T09:06:10.638Z,14.43
2023-03-10T09:07:13.798Z,14.54
2023-03-10T09:08:17.138Z,14.63
2023-03-10T09:09:20.300Z,14.93
2023-03-10T09:10:23.464Z,15.01
2023-03-10T09:11:29.642Z,14.63
2023-03-10T09:12:36.835Z,14.67
2023-03-10T09:13:40.858Z,14.52
2023-03-10T09:14:43.846Z,14.41
2023-03-10T09:15:46.700Z,14.59
2023-03-10T09:16:50.270Z,14.47
2023-03-10T09:17:53.084Z,14.45
2023-03-10T09:18:57.167Z,14.21
2023-03-10T09:20:00.142Z,14.01
2023-03-10T09:21:03.188Z,14.14
2023-03-10T09:22:06.101Z,14.20
2023-03-10T09:23:10.432Z,14.03
2023-03-10T09:24:13.351Z,13.78
2023-03-10T09:25:16.267Z,14.38
2023-03-10T09:26:20.721Z,14.78
2023-03-10T09:27:23.626Z,14.99
2023-03-10T09:28:26.886Z,15.44
2023-03-10T09:29:42.803Z,15.49
2023-03-10T09:30:48.293Z,15.45
2023-03-10T09:31:51.294Z,15.61
2023-03-10T09:32:56.056Z,15.38
2023-03-10T09:33:59.556Z,15.55
2023-03-10T09:35:02.545Z,15.42
2023-03-10T09:36:07.367Z,15.36
2023-03-10T09:37:12.135Z,15.04
2023-03-10T09:38:15.371Z,15.56
2023-03-10T09:39:18.648Z,15.72
2023-03-10T09:40:22.806Z,16.06
2023-03-10T09:42:00.052Z,16.20
2023-03-10T09:43:15.611Z,16.45
2023-03-10T09:44:35.787Z,16.46
2023-03-10T09:46:06.565Z,16.58
2023-03-10T09:47:27.765Z,16.37
2023-03-10T09:48:44.952Z,16.48
2023-03-10T09:50:11.279Z,16.70
2023-03-10T09:51:27.833Z,16.94
2023-03-10T09:52:42.694Z,16.46
2023-03-10T09:54:03.619Z,16.81
2023-03-10T09:55:14.450Z,16.54
2023-03-10T09:56:21.578Z,16.35
2023-03-10T09:57:25.463Z,16.73
2023-03-10T09:58:42.744Z,16.98
2023-03-10T09:59:49.977Z,17.63
2023-03-10T10:00:53.085Z,17.65
2023-03-10T10:01:56.272Z,17.49
2023-03-10T10:03:19.532Z,17.56
2023-03-10T10:04:35.654Z,16.68
2023-03-10T10:05:42.949Z,16.77
2023-03-10T10:06:48.039Z,17.36
2023-03-10T10:07:56.505Z,17.55
2023-03-10T10:09:05.348Z,17.96
2023-03-10T10:10:24.913Z,17.54
2023-03-10T10:11:28.340Z,18.27
2023-03-10T10:12:32.454Z,18.21
2023-03-10T10:13:36.201Z,18.28
2023-03-10T10:14:42.656Z,18.75
2023-03-10T10:16:21.276Z,18.92
2023-03-10T10:18:12.115Z,19.12
2023-03-10T10:19:27.282Z,19.08
2023-03-10T10:20:43.667Z,18.92
2023-03-10T10:22:04.581Z,18.70
2023-03-10T10:23:26.105Z,19.19
2023-03-10T10:24:29.037Z,17.48
2023-03-10T10:25:32.656Z,17.15
2023-03-10T10:26:35.404Z,17.19
2023-03-10T10:27:40.016Z,16.77
2023-03-10T10:28:56.930Z,16.86
2023-03-10T10:29:59.927Z,16.73
2023-03-10T10:31:18.225Z,16.38
2023-03-10T10:32:21.453Z,16.26
2023-03-10T10:33:24.296Z,16.35
2023-03-10T10:34:27.324Z,16.35
2023-03-10T10:35:35.331Z,16.27
2023-03-10T10:36:52.188Z,16.08
2023-03-10T10:38:13.897Z,16.36
2023-03-10T10:39:28.241Z,15.96
2023-03-10T10:40:34.835Z,16.23
2023-03-10T10:41:38.011Z,16.23
2023-03-10T10:42:53.765Z,16.31
2023-03-10T10:43:59.999Z,16.57
2023-03-10T10:45:06.962Z,16.31
2023-03-10T10:46:11.510Z,15.98
2023-03-10T10:47:33.277Z,15.90
2023-03-10T10:48:48.086Z,15.80
2023-03-10T10:49:51.662Z,15.79
2023-03-10T10:50:54.837Z,15.91
2023-03-10T10:52:18.765Z,16.11
2023-03-10T10:53:27.065Z,16.12
2023-03-10T10:54:38.292Z,15.98
2023-03-10T10:55:43.084Z,16.02
2023-03-10T10:57:16.416Z,15.87
2023-03-10T10:58:38.997Z,15.73
2023-03-10T10:59:41.913Z,15.45
2023-03-10T11:00:55.935Z,15.41
2023-03-10T11:02:04.648Z,15.78
2023-03-10T11:03:33.609Z,15.83
2023-03-10T11:04:46.092Z,15.98
2023-03-10T11:05:49.101Z,16.37
2023-03-10T11:06:53.330Z,17.26
2023-03-10T11:07:56.312Z,17.79
2023-03-10T11:09:14.948Z,17.67
2023-03-10T11:10:27.422Z,18.26
2023-03-10T11:11:47.710Z,18.44
2023-03-10T11:13:16.753Z,18.57
2023-03-10T11:14:41.266Z,18.50
2023-03-10T11:15:57.630Z,19.00
2023-03-10T11:17:25.360Z,18.85
2023-03-10T11:18:34.868Z,18.23
2023-03-10T11:19:54.190Z,17.63
2023-03-10T11:21:14.012Z,17.72
2023-03-10T11:22:42.059Z,18.14
2023-03-10T11:23:44.789Z,18.19
2023-03-10T11:25:05.989Z,17.81
2023-03-10T11:26:34.646Z,17.74
2023-03-10T11:27:46.293Z,17.62
2023-03-10T11:29:19.138Z,17.81
2023-03-10T11:30:32.562Z,17.61
2023-03-10T11:32:16.372Z,17.90
2023-03-10T11:33:24.992Z,17.88
2023-03-10T11:34:35.828Z,17.61
2023-03-10T11:35:46.248Z,18.14
2023-03-10T11:37:34.476Z,18.27
2023-03-10T11:38:44.454Z,18.61
2023-03-10T11:40:08.037Z,18.36
2023-03-10T11:41:14.838Z,18.61
2023-03-10T11:42:26.337Z,17.98
2023-03-10T11:43:50.005Z,18.13
2023-03-10T11:45:23.260Z,18.46
2023-03-10T11:46:38.463Z,17.93
2023-03-10T11:48:12.379Z,17.93
2023-03-10T11:49:21.009Z,17.37
2023-03-10T11:50:46.917Z,17.17
2023-03-10T11:52:03.358Z,17.51
2023-03-10T11:53:31.717Z,17.61
2023-03-10T11:54:39.295Z,17.90
2023-03-10T11:55:44.500Z,18.13
2023-03-10T11:56:48.963Z,17.68
2023-03-10T11:57:58.153Z,17.70
2023-03-10T11:59:12.296Z,17.86
2023-03-10T12:00:41.589Z,18.48
2023-03-10T12:01:52.136Z,19.20
2023-03-10T12:03:04.669Z,19.48
2023-03-10T12:04:36.464Z,19.10
2023-03-10T12:05:55.049Z,19.20
2023-03-10T12:07:07.972Z,18.89
2023-03-10T12:08:12.958Z,19.05
2023-03-10T12:09:40.482Z,18.61
2023-03-10T12:10:44.095Z,19.22
2023-03-10T12:11:48.288Z,19.97
2023-03-10T12:12:56.923Z,19.70
2023-03-10T12:14:01.863Z,19.04
2023-03-10T12:15:26.946Z,19.11
2023-03-10T12:16:38.697Z,19.61
2023-03-10T12:17:42.271Z,19.27
2023-03-10T12:18:47.608Z,19.61
2023-03-10T12:20:16.067Z,19.78
2023-03-10T12:21:23.269Z,19.63
2023-03-10T12:22:37.654Z,19.85
2023-03-10T12:23:50.793Z,19.97
2023-03-10T12:24:54.234Z,20.47
2023-03-10T12:25:57.059Z,20.89
2023-03-10T12:27:03.545Z,20.71
2023-03-10T12:28:27.576Z,20.34
2023-03-10T12:29:36.375Z,20.55
2023-03-10T12:30:58.668Z,19.85
2023-03-10T12:32:02.204Z,20.61
2023-03-10T12:33:05.011Z,20.27
2023-03-10T12:34:22.734Z,20.22
2023-03-10T12:35:28.499Z,19.85
2023-03-10T12:36:34.710Z,20.26
2023-03-10T12:37:37.739Z,20.51
2023-03-10T12:39:00.043Z,20.21
2023-03-10T12:40:02.996Z,19.94
2023-03-10T12:41:07.666Z,19.27
2023-03-10T12:42:34.525Z,19.50
2023-03-10T12:43:43.452Z,19.00
2023-03-10T12:45:07.697Z,19.50
2023-03-10T12:46:17.330Z,19.72
2023-03-10T12:47:27.436Z,19.64
2023-03-10T12:48:33.556Z,19.95
2023-03-10T12:50:10.245Z,19.75
2023-03-10T12:51:22.987Z,19.87
2023-03-10T12:52:46.528Z,19.06
2023-03-10T12:54:18.241Z,19.18
2023-03-10T12:55:29.251Z,19.57
2023-03-10T12:56:50.357Z,20.19
2023-03-10T12:57:54.203Z,19.68
2023-03-10T12:59:29.886Z,19.39
2023-03-10T13:00:51.212Z,19.21
2023-03-10T13:01:56.169Z,19.29
2023-03-10T13:03:07.824Z,19.44
2023-03-10T13:04:17.254Z,19.49
2023-03-10T13:05:33.235Z,19.42
2023-03-10T13:06:40.145Z,19.67
2023-03-10T13:07:49.605Z,19.05
2023-03-10T13:09:10.999Z,19.40
2023-03-10T13:10:20.005Z,19.54
2023-03-10T13:11:56.858Z,19.38
2023-03-10T13:13:06.895Z,19.02
2023-03-10T13:14:20.161Z,19.15
2023-03-10T13:15:25.874Z,18.39
2023-03-10T13:16:28.918Z,18.08
2023-03-10T13:17:33.278Z,18.14
2023-03-10T13:18:36.385Z,18.20
2023-03-10T13:19:39.605Z,18.54
2023-03-10T13:20:42.515Z,18.59
2023-03-10T13:21:45.873Z,18.60
2023-03-10T13:22:59.292Z,18.84
2023-03-10T13:24:24.609Z,19.37
2023-03-10T13:25:27.580Z,19.51
2023-03-10T13:26:31.385Z,18.78
2023-03-10T13:27:35.667Z,19.10
2023-03-10T13:28:39.222Z,19.38
2023-03-10T13:30:04.487Z,19.22
2023-03-10T13:31:16.419Z,19.44
2023-03-10T13:32:20.279Z,19.57
2023-03-10T13:33:27.585Z,19.05
2023-03-10T13:34:33.064Z,18.12
2023-03-10T13:35:38.205Z,17.81
2023-03-10T13:36:43.932Z,17.54
2023-03-10T13:38:21.515Z,17.36
2023-03-10T13:39:27.724Z,17.75
2023-03-10T13:40:30.717Z,17.98
2023-03-10T13:41:37.678Z,18.47
2023-03-10T13:42:44.568Z,18.11
2023-03-10T13:43:51.637Z,17.87
2023-03-10T13:44:55.936Z,17.88
2023-03-10T13:46:00.486Z,17.83
2023-03-10T13:47:12.810Z,18.33
2023-03-10T13:48:18.959Z,18.50
2023-03-10T13:49:25.887Z,18.62
2023-03-10T13:50:29.027Z,18.28
2023-03-10T13:51:35.441Z,18.58
2023-03-10T13:52:51.638Z,18.41
2023-03-10T13:53:58.365Z,18.28
2023-03-10T13:55:15.011Z,17.87
2023-03-10T13:56:24.467Z,17.21
2023-03-10T13:57:33.008Z,17.36
2023-03-10T13:58:36.192Z,17.16
2023-03-10T13:59:40.343Z,17.62
2023-03-10T14:00:50.673Z,17.82
2023-03-10T14:01:57.591Z,18.30
2023-03-10T14:03:01.061Z,18.18
2023-03-10T14:04:08.988Z,17.27
2023-03-10T14:05:38.447Z,17.09
2023-03-10T14:06:41.420Z,16.86
2023-03-10T14:08:00.004Z,16.58
2023-03-10T14:09:31.513Z,16.27
2023-03-10T14:10:34.494Z,16.17
2023-03-10T14:11:43.466Z,15.94
2023-03-10T14:12:51.727Z,15.92
2023-03-10T14:13:54.582Z,15.84
2023-03-10T14:15:21.311Z,15.79
2023-03-10T14:16:44.806Z,15.66
2023-03-10T14:17:49.335Z,15.68
2023-03-10T14:18:52.247Z,15.56
2023-03-10T14:19:55.130Z,15.37
2023-03-10T14:20:58.018Z,15.38
2023-03-10T14:22:02.385Z,15.31
2023-03-10T14:23:21.703Z,15.03
2023-03-10T14:24:27.369Z,15.25
2023-03-10T14:25:35.124Z,15.13
2023-03-10T14:26:39.467Z,14.94
2023-03-10T14:27:49.488Z,14.98
2023-03-10T14:28:52.363Z,15.04
2023-03-10T14:29:58.020Z,15.06
2023-03-10T14:31:02.859Z,15.05
2023-03-10T14:32:06.432Z,15.10
2023-03-10T14:33:14.001Z,15.05
2023-03-10T14:34:16.874Z,15.08
2023-03-10T14:35:22.450Z,14.91
2023-03-10T14:36:25.613Z,14.87